Terminal Aerodrome Forecast
Issued by NWS Twin Cities, MN

Home | Current Version | Previous Version | Text Only | Print | Product List | Glossary On
Versions: 1 2 3 4 5 6 7 8 9 10 11 12 13 14 15
000
FTUS43 KMPX 260600 AAA
TAFEAU
TAF AMD
KEAU 260647Z 2607/2706 05004KT P6SM SCT015 BKN040
     FM261100 02004KT P6SM OVC015
     FM261300 36003KT P6SM OVC009
     FM261800 35005KT P6SM OVC012
     FM270400 36006KT 4SM -SN BR OVC009=

USA.gov is the U.S. government's official web portal to all federal, state and local government web resources and services.